Time;durP1;ratioP1;P1;durP2;ratioP2;P2;SDS_P1;SDS_P2;PMS_P1;PMS_P2;Temp;Humidity;BMP_temperature;BMP_pressure;BME280_temperature;BME280_humidity;BME280_pressure;Samples;Min_cycle;Max_cycle;Signal;HPM_P1;HPM_P2
2022/08/20 00:00:27;;;;;;;3.07;2.40;;;21.70;99.90;;;;;;5041265;28;20445;-83
2022/08/20 00:02:56;;;;;;;2.47;1.90;;;21.70;99.90;;;;;;5040055;28;20491;-84
2022/08/20 00:05:26;;;;;;;2.20;1.90;;;21.60;99.90;;;;;;5041043;28;20943;-84
2022/08/20 00:07:54;;;;;;;2.10;1.67;;;21.50;99.90;;;;;;5054897;28;20981;-84
2022/08/20 00:10:22;;;;;;;2.30;2.10;;;21.50;99.90;;;;;;5046334;28;21019;-83
2022/08/20 00:12:50;;;;;;;2.10;1.80;;;21.50;99.90;;;;;;5059479;28;20464;-83
2022/08/20 00:15:20;;;;;;;3.73;2.43;;;21.40;99.90;;;;;;5047554;28;20498;-84
2022/08/20 00:17:47;;;;;;;2.20;2.00;;;21.40;99.90;;;;;;5043638;28;20477;-84
2022/08/20 00:20:37;;;;;;;2.27;1.83;;;21.30;99.90;;;;;;5041076;28;20444;-84
2022/08/20 00:23:06;;;;;;;2.13;1.93;;;21.30;99.90;;;;;;5043953;28;20506;-84
2022/08/20 00:25:33;;;;;;;1.73;1.60;;;21.20;99.90;;;;;;5050353;28;20461;-84
2022/08/20 00:28:02;;;;;;;2.73;1.90;;;21.20;99.90;;;;;;5046592;28;20468;-85
2022/08/20 00:30:31;;;;;;;2.90;2.07;;;21.20;99.90;;;;;;5043110;28;20833;-84
2022/08/20 00:33:03;;;;;;;4.73;2.20;;;21.10;99.90;;;;;;5042229;28;20528;-84
2022/08/20 00:35:33;;;;;;;2.40;2.00;;;21.10;99.90;;;;;;5044143;28;20441;-84
2022/08/20 00:38:00;;;;;;;2.37;1.57;;;21.10;99.90;;;;;;5040087;28;20458;-85
2022/08/20 00:40:30;;;;;;;1.87;1.70;;;21.10;99.90;;;;;;5055950;28;20497;-82
2022/08/20 00:43:01;;;;;;;2.40;1.80;;;21.10;99.90;;;;;;5063903;28;20478;-84
2022/08/20 00:45:31;;;;;;;1.97;1.77;;;21.10;99.90;;;;;;5041470;28;20951;-84
2022/08/20 00:47:58;;;;;;;5.60;1.90;;;21.20;99.90;;;;;;5042129;28;20467;-84
2022/08/20 00:50:31;;;;;;;2.00;1.80;;;21.20;99.90;;;;;;5043081;28;20437;-84
2022/08/20 00:52:57;;;;;;;2.00;1.77;;;21.20;99.90;;;;;;5044860;28;20434;-85
2022/08/20 00:55:26;;;;;;;2.80;1.67;;;21.30;99.90;;;;;;5063971;28;20446;-83
2022/08/20 00:57:58;;;;;;;2.37;1.73;;;21.30;99.90;;;;;;5044705;28;20460;-84
2022/08/20 01:00:28;;;;;;;2.10;1.90;;;21.40;99.90;;;;;;5045533;28;20444;-84
2022/08/20 01:02:55;;;;;;;1.77;1.53;;;21.50;99.90;;;;;;5043503;28;20850;-84
2022/08/20 01:05:23;;;;;;;1.90;1.60;;;21.50;99.90;;;;;;5041320;28;20821;-84
2022/08/20 01:07:52;;;;;;;1.80;1.63;;;21.50;99.90;;;;;;5041970;28;20993;-84
2022/08/20 01:10:22;;;;;;;3.83;3.23;;;21.50;99.90;;;;;;5040307;28;20445;-84
2022/08/20 01:12:52;;;;;;;5.90;2.77;;;21.50;99.90;;;;;;5041026;28;20453;-84
2022/08/20 01:15:22;;;;;;;2.63;2.43;;;21.60;99.90;;;;;;5042780;28;20813;-84
2022/08/20 01:17:57;;;;;;;3.20;2.50;;;21.60;99.90;;;;;;5043277;28;20518;-84
2022/08/20 01:20:28;;;;;;;5.30;2.27;;;21.60;99.90;;;;;;5042466;28;20448;-84
2022/08/20 01:25:52;;;;;;;1.80;1.60;;;21.60;99.90;;;;;;5045872;28;20479;-84
2022/08/20 01:28:23;;;;;;;3.00;1.67;;;21.60;99.90;;;;;;5067500;28;20457;-83
2022/08/20 01:30:50;;;;;;;2.93;2.40;;;21.60;99.90;;;;;;5069804;28;20424;-83
2022/08/20 01:33:18;;;;;;;1.93;1.73;;;21.60;99.90;;;;;;5068207;28;20436;-83
2022/08/20 01:35:45;;;;;;;2.10;1.60;;;21.60;99.90;;;;;;5050815;28;20582;-85
2022/08/20 01:38:12;;;;;;;2.10;1.70;;;21.50;99.90;;;;;;5042731;28;20460;-84
2022/08/20 01:41:00;;;;;;;2.63;2.20;;;21.60;99.90;;;;;;5041606;28;20456;-84
2022/08/20 01:43:27;;;;;;;2.70;2.10;;;21.60;99.90;;;;;;5043363;28;20477;-84
2022/08/20 01:45:54;;;;;;;2.30;1.80;;;21.60;99.90;;;;;;5045081;28;20449;-85
2022/08/20 01:48:22;;;;;;;4.03;2.13;;;21.50;99.90;;;;;;5058038;28;20445;-83
2022/08/20 01:50:55;;;;;;;4.23;2.30;;;21.50;99.90;;;;;;5068417;28;20426;-82
2022/08/20 01:53:27;;;;;;;3.07;1.90;;;21.50;99.90;;;;;;5064636;28;20437;-84
2022/08/20 01:55:54;;;;;;;1.80;1.70;;;21.50;99.90;;;;;;5062064;28;20463;-80
2022/08/20 01:58:23;;;;;;;3.13;2.27;;;21.60;99.90;;;;;;5060204;28;20460;-81
2022/08/20 02:00:50;;;;;;;5.07;4.67;;;21.50;99.90;;;;;;5049848;28;20441;-84
2022/08/20 02:03:16;;;;;;;6.97;5.53;;;21.50;99.90;;;;;;5044077;28;20473;-85
2022/08/20 02:05:43;;;;;;;8.53;7.83;;;21.50;99.90;;;;;;5043340;28;20463;-84
2022/08/20 02:08:10;;;;;;;11.10;10.10;;;21.40;99.90;;;;;;5045195;28;20833;-84
2022/08/20 02:10:36;;;;;;;12.27;11.13;;;21.40;99.90;;;;;;5046821;28;20842;-85
2022/08/20 02:13:06;;;;;;;13.63;12.53;;;21.30;99.90;;;;;;5039904;28;20450;-85
2022/08/20 02:15:34;;;;;;;13.60;12.40;;;21.30;99.90;;;;;;5047488;28;20882;-84
2022/08/20 02:18:04;;;;;;;13.37;12.00;;;21.30;99.90;;;;;;5050089;28;20456;-84
2022/08/20 02:20:31;;;;;;;14.23;12.90;;;21.10;99.90;;;;;;5045248;28;20448;-84
2022/08/20 02:23:00;;;;;;;13.40;12.20;;;21.00;99.90;;;;;;5043703;28;20579;-84
2022/08/20 02:25:30;;;;;;;14.70;13.20;;;21.00;99.90;;;;;;5052207;28;20862;-81
2022/08/20 02:27:59;;;;;;;13.10;11.50;;;20.90;99.90;;;;;;5057759;28;20460;-81
2022/08/20 02:30:31;;;;;;;14.43;13.17;;;20.80;99.90;;;;;;5042529;28;20495;-84
2022/08/20 02:33:01;;;;;;;13.30;12.20;;;20.80;99.90;;;;;;5045182;28;20438;-81
2022/08/20 02:35:28;;;;;;;13.20;11.90;;;20.70;99.90;;;;;;5045737;28;20772;-84
2022/08/20 02:37:55;;;;;;;13.27;11.97;;;20.70;99.90;;;;;;5047198;28;20476;-84
2022/08/20 02:40:25;;;;;;;13.37;10.80;;;20.60;99.90;;;;;;5045187;28;20441;-84
2022/08/20 02:42:51;;;;;;;11.20;10.20;;;20.70;99.90;;;;;;5053422;28;20548;-84
2022/08/20 02:45:20;;;;;;;12.23;10.50;;;20.70;99.90;;;;;;5058960;28;20426;-84
2022/08/20 02:47:48;;;;;;;11.83;10.77;;;20.60;99.90;;;;;;5075011;28;20468;-85
2022/08/20 02:50:19;;;;;;;12.47;11.20;;;20.70;99.90;;;;;;5064112;28;20448;-81
2022/08/20 02:52:46;;;;;;;12.13;11.03;;;20.70;99.90;;;;;;5056733;28;20438;-81
2022/08/20 02:55:14;;;;;;;11.77;10.67;;;20.70;99.90;;;;;;5047781;28;20442;-83
2022/08/20 02:57:42;;;;;;;12.10;10.50;;;20.70;99.90;;;;;;5070516;28;20454;-83
2022/08/20 03:00:13;;;;;;;12.17;11.07;;;20.70;99.90;;;;;;5065414;28;20488;-82
2022/08/20 03:02:40;;;;;;;12.13;10.93;;;20.70;99.90;;;;;;5049363;28;20496;-85
2022/08/20 03:05:07;;;;;;;12.53;11.37;;;20.60;99.90;;;;;;5044193;28;20467;-84
2022/08/20 03:07:42;;;;;;;12.33;11.13;;;20.60;99.90;;;;;;5037690;28;20470;-84
2022/08/20 03:10:10;;;;;;;12.40;11.20;;;20.50;99.90;;;;;;5041677;28;20529;-85
2022/08/20 03:12:37;;;;;;;15.73;14.07;;;20.50;99.90;;;;;;5042522;28;20437;-81
2022/08/20 03:15:05;;;;;;;15.17;13.70;;;20.40;99.90;;;;;;5039100;28;20469;-84
2022/08/20 03:17:31;;;;;;;13.00;11.90;;;20.40;99.90;;;;;;5049214;28;20467;-84
2022/08/20 03:19:58;;;;;;;12.57;11.60;;;20.40;99.90;;;;;;5039278;28;20448;-84
2022/08/20 03:22:25;;;;;;;12.83;11.80;;;20.30;99.90;;;;;;5045316;28;20485;-84
2022/08/20 03:24:53;;;;;;;13.20;12.00;;;20.30;99.90;;;;;;5040762;28;20449;-84
2022/08/20 03:27:20;;;;;;;14.17;12.87;;;20.30;99.90;;;;;;5039764;28;20867;-84
2022/08/20 03:29:47;;;;;;;14.37;13.07;;;20.40;99.90;;;;;;5047842;28;20469;-84
2022/08/20 03:32:13;;;;;;;16.70;12.30;;;20.40;99.90;;;;;;5042108;28;20528;-84
2022/08/20 03:34:40;;;;;;;14.80;13.17;;;20.40;99.90;;;;;;5047854;28;20481;-82
2022/08/20 03:37:07;;;;;;;13.83;12.53;;;20.40;99.90;;;;;;5068132;28;20458;-83
2022/08/20 03:39:34;;;;;;;13.50;12.10;;;20.40;99.90;;;;;;5059155;28;20933;-84
2022/08/20 03:42:02;;;;;;;12.40;11.30;;;20.40;99.90;;;;;;5048167;28;20445;-84
2022/08/20 03:44:28;;;;;;;16.67;13.37;;;20.30;99.90;;;;;;5043540;28;20496;-84
2022/08/20 03:46:55;;;;;;;13.20;11.83;;;20.30;99.90;;;;;;5046193;28;20464;-84
2022/08/20 03:49:22;;;;;;;15.03;13.73;;;20.30;99.90;;;;;;5044385;28;20490;-84
2022/08/20 03:51:49;;;;;;;14.53;11.87;;;20.30;99.90;;;;;;5050808;28;20441;-84
2022/08/20 03:54:16;;;;;;;13.73;12.53;;;20.30;99.90;;;;;;5051363;28;20933;-84
2022/08/20 03:56:42;;;;;;;15.27;13.83;;;20.30;99.90;;;;;;5042728;28;20448;-84
2022/08/20 03:59:10;;;;;;;15.23;13.83;;;20.30;99.90;;;;;;5044726;28;20448;-84
2022/08/20 04:01:37;;;;;;;14.63;13.33;;;20.30;99.90;;;;;;5056398;28;20448;-82
2022/08/20 04:04:04;;;;;;;14.27;12.87;;;20.30;99.90;;;;;;5068696;28;20531;-84
2022/08/20 04:06:31;;;;;;;13.57;12.17;;;20.30;99.90;;;;;;5043618;28;20445;-82
2022/08/20 04:08:58;;;;;;;13.00;11.60;;;20.30;99.90;;;;;;5040681;28;20532;-84
2022/08/20 04:11:24;;;;;;;12.43;11.33;;;20.30;99.90;;;;;;5043285;28;20477;-83
2022/08/20 04:13:51;;;;;;;12.37;11.00;;;20.30;99.90;;;;;;5043940;28;20446;-83
2022/08/20 04:16:19;;;;;;;11.60;10.60;;;20.40;99.90;;;;;;5040219;28;20944;-83
2022/08/20 04:18:47;;;;;;;11.53;10.13;;;20.40;99.90;;;;;;5042285;28;20469;-83
2022/08/20 04:21:14;;;;;;;11.20;10.20;;;20.40;99.90;;;;;;5041608;28;20525;-83
2022/08/20 04:23:41;;;;;;;10.90;9.90;;;20.40;99.90;;;;;;5040372;28;20484;-83
2022/08/20 04:26:10;;;;;;;9.93;8.73;;;20.40;99.90;;;;;;5045138;28;20456;-83
2022/08/20 04:28:36;;;;;;;8.37;7.57;;;20.50;99.90;;;;;;5052619;28;20860;-83
2022/08/20 04:31:04;;;;;;;10.20;9.30;;;20.40;99.90;;;;;;5066632;28;20447;-80
2022/08/20 04:33:32;;;;;;;9.33;8.37;;;20.50;99.90;;;;;;5062085;28;20437;-82
2022/08/20 04:36:01;;;;;;;9.53;8.63;;;20.50;99.90;;;;;;5047401;28;20468;-81
2022/08/20 04:38:30;;;;;;;10.07;8.83;;;20.50;99.90;;;;;;5049967;28;20486;-81
2022/08/20 04:40:58;;;;;;;7.00;6.40;;;20.50;99.90;;;;;;5059043;28;20437;-82
2022/08/20 04:43:28;;;;;;;10.30;8.00;;;20.60;99.90;;;;;;5053417;28;20476;-83
2022/08/20 04:45:56;;;;;;;8.00;7.30;;;20.60;99.90;;;;;;5061703;28;20455;-81
2022/08/20 04:48:24;;;;;;;8.47;7.77;;;20.60;99.90;;;;;;5066083;28;20456;-79
2022/08/20 04:50:53;;;;;;;7.27;6.23;;;20.50;99.90;;;;;;5061257;28;20442;-80
2022/08/20 04:53:22;;;;;;;6.90;6.40;;;20.50;99.90;;;;;;5045535;28;20490;-81
2022/08/20 04:55:50;;;;;;;6.90;6.17;;;20.50;99.90;;;;;;5041626;28;20444;-83
2022/08/20 04:58:19;;;;;;;6.80;6.07;;;20.50;99.90;;;;;;5045490;28;20460;-83
2022/08/20 05:00:47;;;;;;;7.27;6.67;;;20.50;99.90;;;;;;5043449;28;20441;-83
2022/08/20 05:03:14;;;;;;;6.57;5.97;;;20.50;99.90;;;;;;5045803;28;20519;-83
2022/08/20 05:05:41;;;;;;;7.87;6.13;;;20.50;99.90;;;;;;5048758;28;21465;-81
2022/08/20 05:08:09;;;;;;;7.10;6.50;;;20.50;99.90;;;;;;5043555;28;20503;-82
2022/08/20 05:10:37;;;;;;;7.93;6.20;;;20.60;99.90;;;;;;5067496;28;20442;-79
2022/08/20 05:13:04;;;;;;;6.17;5.67;;;20.60;99.90;;;;;;5055052;28;20512;-83
2022/08/20 05:15:30;;;;;;;7.10;6.40;;;20.60;99.90;;;;;;5043082;28;20449;-83
2022/08/20 05:18:01;;;;;;;6.20;5.20;;;20.70;99.90;;;;;;5043917;28;20496;-83
2022/08/20 05:20:30;;;;;;;6.47;5.90;;;20.70;99.90;;;;;;5047250;28;20448;-82
2022/08/20 05:22:57;;;;;;;6.63;6.13;;;20.60;99.90;;;;;;5046312;28;20480;-83
2022/08/20 05:25:28;;;;;;;7.50;6.23;;;20.50;99.90;;;;;;5040160;28;20859;-83
2022/08/20 05:27:57;;;;;;;6.77;6.00;;;20.50;99.90;;;;;;5042650;28;20476;-83
2022/08/20 05:30:23;;;;;;;6.50;5.90;;;20.50;99.90;;;;;;5044172;28;20902;-84
2022/08/20 05:32:50;;;;;;;6.50;5.90;;;20.50;99.90;;;;;;5044904;28;20454;-81
2022/08/20 05:35:17;;;;;;;7.40;6.10;;;20.50;99.90;;;;;;5044488;28;20437;-83
2022/08/20 05:37:44;;;;;;;5.50;4.97;;;20.40;99.90;;;;;;5039634;28;20484;-83
2022/08/20 05:40:13;;;;;;;6.23;5.63;;;20.40;99.90;;;;;;5043896;28;20823;-83
2022/08/20 05:42:42;;;;;;;5.73;5.13;;;20.40;99.90;;;;;;5064505;28;20432;-80
2022/08/20 05:45:11;;;;;;;6.43;5.13;;;20.40;99.90;;;;;;5065350;28;20465;-80
2022/08/20 05:47:40;;;;;;;6.47;5.87;;;20.40;99.90;;;;;;5038170;28;20466;-83
2022/08/20 05:50:09;;;;;;;6.17;5.57;;;20.30;99.90;;;;;;5048545;28;21009;-80
2022/08/20 05:52:36;;;;;;;9.23;5.63;;;20.30;99.90;;;;;;5044895;28;20946;-82
2022/08/20 05:55:03;;;;;;;6.83;5.50;;;20.40;99.90;;;;;;5046926;28;20499;-83
2022/08/20 05:57:30;;;;;;;5.47;4.97;;;20.40;99.90;;;;;;5041656;28;21011;-81
2022/08/20 06:00:00;;;;;;;6.63;5.20;;;20.30;99.90;;;;;;5042378;28;20805;-80
2022/08/20 06:05:11;;;;;;;5.53;5.03;;;20.50;99.90;;;;;;5042925;28;20424;-81
2022/08/20 06:07:38;;;;;;;7.60;6.63;;;20.60;99.90;;;;;;5048810;28;20637;-82
2022/08/20 06:10:05;;;;;;;6.23;5.63;;;20.70;99.90;;;;;;5044861;28;20442;-82
2022/08/20 06:12:32;;;;;;;5.77;5.27;;;20.80;99.90;;;;;;5045935;28;20440;-82
2022/08/20 06:15:00;;;;;;;6.90;5.87;;;20.90;99.90;;;;;;5048705;28;20440;-83
2022/08/20 06:17:28;;;;;;;6.80;5.77;;;21.10;99.90;;;;;;5041674;28;20464;-81
2022/08/20 06:19:55;;;;;;;6.40;5.80;;;21.20;99.90;;;;;;5054983;28;20413;-79
2022/08/20 06:22:21;;;;;;;7.13;6.53;;;21.40;99.90;;;;;;5068514;28;20447;-80
2022/08/20 06:24:48;;;;;;;6.03;5.37;;;21.50;99.90;;;;;;5059905;28;20472;-80
2022/08/20 06:27:16;;;;;;;6.90;6.30;;;21.50;99.90;;;;;;5053038;28;20461;-83
2022/08/20 06:29:43;;;;;;;6.60;5.90;;;21.50;99.90;;;;;;5046102;28;20533;-82
2022/08/20 06:32:11;;;;;;;6.40;5.83;;;21.50;99.90;;;;;;5047294;28;20989;-81
2022/08/20 06:34:38;;;;;;;5.80;5.30;;;21.60;99.90;;;;;;5038530;28;20438;-81
2022/08/20 06:37:15;;;;;;;7.33;5.33;;;21.60;99.90;;;;;;5046213;28;20470;-82
2022/08/20 06:39:42;;;;;;;9.57;6.00;;;21.80;99.90;;;;;;5052045;28;20508;-82
2022/08/20 06:42:09;;;;;;;6.43;4.80;;;22.40;99.90;;;;;;5047792;28;20433;-84
2022/08/20 06:44:36;;;;;;;5.10;4.70;;;22.60;99.90;;;;;;5052564;28;20481;-85
2022/08/20 06:47:04;;;;;;;5.80;5.20;;;22.40;99.90;;;;;;5046723;28;20464;-83
2022/08/20 06:49:34;;;;;;;5.63;5.20;;;22.20;99.90;;;;;;5048715;28;20888;-86
2022/08/20 06:52:01;;;;;;;6.30;5.70;;;22.30;99.90;;;;;;5050238;28;20473;-83
2022/08/20 06:54:28;;;;;;;6.27;5.20;;;22.30;99.90;;;;;;5050441;28;20436;-83
2022/08/20 06:56:55;;;;;;;6.60;5.90;;;22.30;99.90;;;;;;5055712;28;21007;-84
2022/08/20 06:59:22;;;;;;;6.73;6.10;;;22.40;99.90;;;;;;5072215;28;20468;-81
2022/08/20 07:01:48;;;;;;;8.23;5.80;;;22.40;99.90;;;;;;5059962;28;20475;-81
2022/08/20 07:04:15;;;;;;;8.10;5.97;;;22.50;99.90;;;;;;5060757;28;20480;-81
2022/08/20 07:06:43;;;;;;;7.50;5.37;;;22.50;99.90;;;;;;5053951;28;20818;-80
2022/08/20 07:09:10;;;;;;;6.43;5.90;;;22.50;99.90;;;;;;5051842;28;20961;-85
2022/08/20 07:11:37;;;;;;;5.50;5.00;;;22.50;99.90;;;;;;5046920;28;20442;-83
2022/08/20 07:14:04;;;;;;;6.43;4.90;;;22.50;99.90;;;;;;5045850;28;20445;-82
2022/08/20 07:16:31;;;;;;;6.27;5.00;;;22.60;99.90;;;;;;5041386;28;20473;-80
2022/08/20 07:18:58;;;;;;;5.90;5.40;;;22.50;99.90;;;;;;5047211;28;20460;-82
2022/08/20 07:21:25;;;;;;;5.70;4.60;;;22.60;99.90;;;;;;5042306;28;20441;-82
2022/08/20 07:23:53;;;;;;;6.30;4.77;;;22.50;99.90;;;;;;5056506;28;20572;-83
2022/08/20 07:26:20;;;;;;;8.03;4.97;;;22.60;99.90;;;;;;5063008;28;20441;-82
2022/08/20 07:28:47;;;;;;;7.30;4.70;;;22.60;99.90;;;;;;5062253;28;20499;-82
2022/08/20 07:33:58;;;;;;;4.77;4.27;;;22.70;99.90;;;;;;5076311;28;20424;-85
2022/08/20 07:36:24;;;;;;;5.80;5.30;;;22.70;99.90;;;;;;5075040;28;20448;-84
2022/08/20 07:38:53;;;;;;;5.90;5.30;;;22.70;99.90;;;;;;5076549;28;20457;-84
2022/08/20 07:41:20;;;;;;;5.37;4.93;;;22.70;99.90;;;;;;5058853;28;20442;-83
2022/08/20 07:43:48;;;;;;;5.80;5.30;;;22.80;99.90;;;;;;5042256;28;20956;-83
2022/08/20 07:46:17;;;;;;;7.53;5.77;;;22.80;99.90;;;;;;5041619;28;20546;-81
2022/08/20 07:48:48;;;;;;;6.30;5.60;;;22.90;99.90;;;;;;5042486;28;20476;-81
2022/08/20 07:51:17;;;;;;;6.70;6.00;;;23.00;99.90;;;;;;5042979;28;20441;-80
2022/08/20 07:53:46;;;;;;;7.47;5.90;;;23.20;99.90;;;;;;5040095;28;20446;-83
2022/08/20 07:56:18;;;;;;;7.60;5.20;;;23.40;99.90;;;;;;5043556;28;20534;-81
2022/08/20 07:58:48;;;;;;;5.53;4.90;;;23.60;99.90;;;;;;5036773;28;20466;-80
2022/08/20 08:01:15;;;;;;;5.80;5.30;;;23.80;99.90;;;;;;5062972;22;20493;-83
2022/08/20 08:03:42;;;;;;;4.83;4.40;;;24.30;99.90;;;;;;5077822;28;20480;-83
2022/08/20 08:06:09;;;;;;;4.83;4.37;;;24.60;99.90;;;;;;5087649;28;20453;-80
2022/08/20 08:08:37;;;;;;;4.90;4.40;;;24.90;99.90;;;;;;5089346;28;20434;-80
2022/08/20 08:11:05;;;;;;;5.10;4.60;;;25.30;99.90;;;;;;5074973;28;20482;-84
2022/08/20 08:13:36;;;;;;;5.07;3.80;;;25.80;99.90;;;;;;5057068;28;20515;-82
2022/08/20 08:16:05;;;;;;;4.33;4.00;;;26.30;99.90;;;;;;5053823;28;20441;-82
2022/08/20 08:18:36;;;;;;;5.00;3.93;;;26.70;99.00;;;;;;5056420;28;20449;-82
2022/08/20 08:21:04;;;;;;;5.40;4.13;;;26.90;97.30;;;;;;5054986;28;20571;-82
2022/08/20 08:23:31;;;;;;;4.70;4.30;;;27.50;95.80;;;;;;5057807;28;20964;-82
2022/08/20 08:25:58;;;;;;;5.20;4.20;;;28.10;94.40;;;;;;5057315;28;20534;-81
2022/08/20 08:28:27;;;;;;;5.37;4.03;;;28.30;92.60;;;;;;5089533;28;20448;-83
2022/08/20 08:30:55;;;;;;;4.30;3.90;;;28.40;92.10;;;;;;5082536;28;20448;-82
2022/08/20 08:33:31;;;;;;;4.03;3.63;;;28.60;91.60;;;;;;5080840;28;20537;-83
2022/08/20 08:36:00;;;;;;;6.50;3.70;;;28.90;90.70;;;;;;5079084;28;20439;-83
2022/08/20 08:38:27;;;;;;;4.63;3.70;;;29.30;89.00;;;;;;5080542;28;20452;-82
2022/08/20 08:40:57;;;;;;;4.17;3.77;;;28.70;88.40;;;;;;5081337;28;20452;-82
2022/08/20 08:43:26;;;;;;;4.47;3.80;;;28.20;90.60;;;;;;5079633;28;20985;-82
2022/08/20 08:46:00;;;;;;;4.17;3.77;;;28.10;90.70;;;;;;5079117;28;20459;-83
2022/08/20 08:48:33;;;;;;;4.17;3.87;;;28.30;90.60;;;;;;5078349;28;20446;-82
2022/08/20 08:51:02;;;;;;;3.83;3.53;;;28.10;90.40;;;;;;5079353;28;21010;-82
2022/08/20 08:53:33;;;;;;;3.90;3.60;;;28.00;90.30;;;;;;5081471;28;20447;-82
2022/08/20 08:56:00;;;;;;;4.77;4.37;;;27.70;90.80;;;;;;5082891;28;20452;-83
2022/08/20 08:58:27;;;;;;;4.60;4.03;;;27.60;91.00;;;;;;5081441;28;20454;-82
2022/08/20 09:00:56;;;;;;;5.30;4.47;;;27.20;91.50;;;;;;5089022;28;20465;-83
2022/08/20 09:03:27;;;;;;;5.77;5.03;;;27.00;91.90;;;;;;5094162;28;20448;-82
2022/08/20 09:05:57;;;;;;;5.43;4.93;;;26.70;92.40;;;;;;5085538;28;20537;-82
2022/08/20 09:08:27;;;;;;;5.90;5.43;;;26.60;93.10;;;;;;5083416;28;20473;-82
2022/08/20 09:10:54;;;;;;;5.10;4.60;;;26.70;93.40;;;;;;5083282;28;20445;-82
2022/08/20 09:13:21;;;;;;;5.00;4.50;;;26.70;93.20;;;;;;5082488;28;20480;-82
2022/08/20 09:15:47;;;;;;;4.97;4.57;;;26.70;93.00;;;;;;5081001;28;20446;-82
2022/08/20 09:18:15;;;;;;;4.70;4.30;;;26.60;93.10;;;;;;5061522;28;20477;-82
2022/08/20 09:20:42;;;;;;;5.80;5.30;;;26.50;93.20;;;;;;5046584;28;20455;-82
2022/08/20 09:23:09;;;;;;;4.00;3.70;;;26.50;93.50;;;;;;5060003;28;20472;-83
2022/08/20 09:25:35;;;;;;;6.17;5.67;;;26.40;93.80;;;;;;5059987;28;20482;-82
2022/08/20 09:28:02;;;;;;;5.23;4.77;;;26.40;94.00;;;;;;5068465;28;20471;-82
2022/08/20 09:30:29;;;;;;;4.90;4.50;;;26.70;93.40;;;;;;5069910;28;20437;-82
2022/08/20 09:32:58;;;;;;;6.80;4.53;;;26.90;92.50;;;;;;5071846;28;20462;-82
2022/08/20 09:35:27;;;;;;;4.33;3.93;;;26.70;92.70;;;;;;5068291;28;20445;-82
2022/08/20 09:37:54;;;;;;;4.90;4.40;;;26.50;93.30;;;;;;5069559;28;20448;-83
2022/08/20 09:40:21;;;;;;;4.30;3.90;;;26.40;93.60;;;;;;5065376;28;20444;-83
2022/08/20 09:42:49;;;;;;;4.23;3.80;;;26.50;93.50;;;;;;5061929;28;20468;-82
2022/08/20 09:45:16;;;;;;;3.87;3.57;;;26.30;93.50;;;;;;5062911;28;20480;-83
2022/08/20 09:47:43;;;;;;;3.57;2.83;;;26.10;93.90;;;;;;5065106;28;20444;-82
2022/08/20 09:50:10;;;;;;;5.13;2.77;;;26.00;94.10;;;;;;5064941;28;20456;-82
2022/08/20 09:52:42;;;;;;;3.63;2.60;;;26.10;94.10;;;;;;5063992;28;20468;-83
2022/08/20 09:55:26;;;;;;;3.43;2.80;;;26.10;93.70;;;;;;5058492;28;20498;-86
2022/08/20 09:57:53;;;;;;;2.90;2.40;;;26.20;93.40;;;;;;5056430;28;20462;-86
2022/08/20 10:00:20;;;;;;;2.37;2.17;;;26.30;93.30;;;;;;5056780;28;20496;-86
2022/08/20 10:02:47;;;;;;;3.30;2.33;;;26.90;92.60;;;;;;5059234;28;20474;-86
2022/08/20 10:05:14;;;;;;;3.13;2.23;;;27.40;91.60;;;;;;5070118;28;20482;-86
2022/08/20 10:07:43;;;;;;;4.33;2.63;;;27.70;90.50;;;;;;5077542;28;20436;-86
2022/08/20 10:10:13;;;;;;;2.60;2.10;;;27.80;90.40;;;;;;5074071;28;20425;-86
2022/08/20 10:12:41;;;;;;;2.77;2.47;;;28.10;88.90;;;;;;5079839;28;20484;-86
2022/08/20 10:15:10;;;;;;;2.87;2.00;;;28.60;87.90;;;;;;5060463;28;20547;-86
2022/08/20 10:17:38;;;;;;;2.47;1.60;;;29.80;82.20;;;;;;5056398;28;20498;-87
2022/08/20 10:20:06;;;;;;;2.17;1.70;;;30.70;77.10;;;;;;5057653;28;20472;-86
2022/08/20 10:22:32;;;;;;;2.83;1.60;;;30.50;74.90;;;;;;5076993;28;20464;-86
2022/08/20 10:25:00;;;;;;;2.10;1.90;;;30.90;73.90;;;;;;5077936;28;20488;-87
2022/08/20 10:27:27;;;;;;;3.37;1.60;;;31.00;72.90;;;;;;5060996;28;20457;-87
2022/08/20 10:29:54;;;;;;;2.27;1.50;;;31.20;72.30;;;;;;5060615;28;20455;-86
2022/08/20 10:32:20;;;;;;;2.60;1.47;;;30.60;72.40;;;;;;5057376;28;20483;-86
2022/08/20 10:34:47;;;;;;;1.73;1.20;;;30.50;73.50;;;;;;5059055;28;20452;-86
2022/08/20 10:37:16;;;;;;;1.33;0.97;;;31.20;70.90;;;;;;5059963;28;20825;-86
2022/08/20 10:39:43;;;;;;;1.80;0.97;;;32.10;67.50;;;;;;5058433;28;21003;-86
2022/08/20 10:42:11;;;;;;;1.70;0.80;;;33.80;62.90;;;;;;5058204;28;20543;-87
2022/08/20 10:44:38;;;;;;;1.30;1.00;;;35.40;58.70;;;;;;5059819;28;20487;-86
2022/08/20 10:47:17;;;;;;;1.23;0.93;;;36.90;54.50;;;;;;5060635;28;20458;-87
2022/08/20 10:49:44;;;;;;;2.47;1.10;;;37.40;51.40;;;;;;5065974;28;20451;-87
2022/08/20 10:52:11;;;;;;;1.20;0.90;;;37.10;51.50;;;;;;5056593;28;20460;-86
2022/08/20 10:54:40;;;;;;;1.50;1.00;;;37.90;49.40;;;;;;5062387;28;20465;-87
2022/08/20 10:57:06;;;;;;;2.17;0.97;;;37.30;49.10;;;;;;5076527;28;20454;-87
2022/08/20 10:59:38;;;;;;;1.40;1.10;;;37.80;48.60;;;;;;5058908;28;20459;-88
2022/08/20 11:02:06;;;;;;;1.87;1.40;;;38.10;47.80;;;;;;5074049;28;20475;-87
2022/08/20 11:04:33;;;;;;;1.67;1.33;;;36.60;49.40;;;;;;5058048;28;20538;-86
2022/08/20 11:07:10;;;;;;;3.07;2.77;;;34.70;51.90;;;;;;5055854;28;20884;-87
2022/08/20 11:09:37;;;;;;;1.60;1.20;;;32.90;55.30;;;;;;5057015;28;20446;-88
2022/08/20 11:12:04;;;;;;;1.60;1.27;;;31.60;58.80;;;;;;5055641;28;20458;-87
2022/08/20 11:14:31;;;;;;;1.90;1.70;;;30.70;60.20;;;;;;5055300;28;20513;-86
2022/08/20 11:16:59;;;;;;;6.03;2.90;;;30.00;62.70;;;;;;5055352;28;20575;-87
2022/08/20 11:19:25;;;;;;;10.83;8.73;;;29.20;65.40;;;;;;5055536;28;20449;-86
2022/08/20 11:21:52;;;;;;;3.63;3.20;;;28.50;67.40;;;;;;5056176;28;20472;-86
2022/08/20 11:24:19;;;;;;;2.20;1.60;;;28.20;69.70;;;;;;5056651;28;20957;-88
2022/08/20 11:26:47;;;;;;;2.30;1.60;;;28.00;70.20;;;;;;5057722;28;20449;-87
2022/08/20 11:29:14;;;;;;;2.67;1.90;;;27.80;71.50;;;;;;5056197;28;20855;-87
2022/08/20 11:31:41;;;;;;;2.03;1.20;;;27.70;72.70;;;;;;5057184;28;20472;-87
2022/08/20 11:34:09;;;;;;;3.73;3.37;;;27.60;73.50;;;;;;5056699;28;20451;-87
2022/08/20 11:36:37;;;;;;;3.47;3.17;;;27.60;74.20;;;;;;5058316;28;20443;-87
2022/08/20 11:39:04;;;;;;;4.00;3.57;;;27.50;75.10;;;;;;5068018;28;20437;-86
2022/08/20 11:41:30;;;;;;;3.30;2.77;;;27.40;75.90;;;;;;5075084;28;20461;-88
2022/08/20 11:43:57;;;;;;;2.30;1.70;;;27.60;76.10;;;;;;5075637;28;20433;-86
2022/08/20 11:46:24;;;;;;;3.90;2.80;;;27.70;75.30;;;;;;5078378;28;20473;-87
2022/08/20 11:48:50;;;;;;;2.87;2.67;;;27.90;74.50;;;;;;5057546;28;20445;-87
2022/08/20 11:51:18;;;;;;;3.87;1.50;;;27.90;73.70;;;;;;5056125;28;20494;-86
2022/08/20 11:53:45;;;;;;;3.10;1.10;;;27.80;72.60;;;;;;5056391;28;20955;-86
2022/08/20 11:56:15;;;;;;;2.13;1.40;;;27.70;72.60;;;;;;5057508;28;20915;-86
2022/08/20 11:58:41;;;;;;;2.50;2.10;;;27.50;73.70;;;;;;5057904;28;20445;-87
2022/08/20 12:01:08;;;;;;;2.93;2.63;;;27.30;74.40;;;;;;5055031;28;20474;-87
2022/08/20 12:03:35;;;;;;;3.20;2.73;;;27.30;75.10;;;;;;5073309;28;20438;-87
2022/08/20 12:06:02;;;;;;;4.30;3.90;;;27.30;75.70;;;;;;5073605;28;20480;-87
2022/08/20 12:08:30;;;;;;;3.87;3.33;;;27.30;76.00;;;;;;5055265;28;20461;-86
2022/08/20 12:10:59;;;;;;;1.70;1.17;;;27.20;76.20;;;;;;5056947;28;20463;-86
2022/08/20 12:13:26;;;;;;;1.80;1.20;;;27.10;75.60;;;;;;5055925;28;20500;-87
2022/08/20 12:15:54;;;;;;;2.13;1.63;;;27.10;75.70;;;;;;5054792;28;20819;-86
2022/08/20 12:18:21;;;;;;;8.83;7.13;;;27.10;76.00;;;;;;5053606;28;20452;-87
2022/08/20 12:20:47;;;;;;;5.43;4.67;;;27.10;76.10;;;;;;5052918;28;20808;-86
2022/08/20 12:23:14;;;;;;;3.87;3.37;;;27.20;76.30;;;;;;5053113;28;20447;-86
2022/08/20 12:25:42;;;;;;;2.43;2.10;;;27.30;76.10;;;;;;5053283;28;20492;-86
2022/08/20 12:28:11;;;;;;;1.80;1.40;;;27.40;75.60;;;;;;5053720;28;20453;-87
2022/08/20 12:30:38;;;;;;;1.40;1.07;;;27.50;74.80;;;;;;5053290;28;21000;-86
2022/08/20 12:33:05;;;;;;;2.67;1.53;;;27.50;75.10;;;;;;5053276;28;20942;-86
2022/08/20 12:35:32;;;;;;;2.47;1.20;;;27.70;74.90;;;;;;5053201;28;20455;-87
2022/08/20 12:38:02;;;;;;;3.20;1.60;;;27.80;74.50;;;;;;5053229;28;20500;-86
2022/08/20 12:40:29;;;;;;;2.30;1.33;;;28.00;74.10;;;;;;5053530;28;20450;-86
2022/08/20 12:42:57;;;;;;;2.33;1.17;;;28.10;73.60;;;;;;5053151;28;20471;-86
2022/08/20 12:45:23;;;;;;;1.50;0.93;;;28.20;73.40;;;;;;5053175;28;20493;-86
2022/08/20 12:47:50;;;;;;;1.50;1.20;;;28.10;73.20;;;;;;5053072;28;20456;-86
2022/08/20 12:50:20;;;;;;;2.50;1.37;;;28.30;73.40;;;;;;5053000;28;20461;-87
2022/08/20 12:52:48;;;;;;;1.87;1.43;;;28.40;72.50;;;;;;5064026;28;20449;-86
2022/08/20 12:55:17;;;;;;;2.13;1.43;;;28.30;73.70;;;;;;5076142;28;20490;-87